createdAt,value
2022-12-20T00:01:01.607Z,96.76
2022-12-20T00:03:03.231Z,96.77
2022-12-20T00:05:05.167Z,96.67
2022-12-20T00:07:06.789Z,96.64
2022-12-20T00:11:09.382Z,96.56
2022-12-20T00:13:11.069Z,96.57
2022-12-20T00:15:13.107Z,96.57
2022-12-20T00:17:15.062Z,96.56
2022-12-20T00:19:16.347Z,96.56
2022-12-20T00:21:17.361Z,96.58
2022-12-20T00:23:18.599Z,96.61
2022-12-20T00:25:19.850Z,96.6
2022-12-20T00:27:20.904Z,96.57
2022-12-20T00:29:22.152Z,96.57
2022-12-20T00:31:23.540Z,96.54
2022-12-20T00:33:25.037Z,96.49
2022-12-20T00:35:26.686Z,96.42
2022-12-20T00:37:28.152Z,96.4
2022-12-20T00:39:29.872Z,96.35
2022-12-20T00:41:31.954Z,96.34
2022-12-20T00:43:33.419Z,96.34
2022-12-20T00:45:34.832Z,96.25
2022-12-20T00:47:36.609Z,96.18
2022-12-20T00:49:38.246Z,96.13
2022-12-20T00:51:39.747Z,96.08
2022-12-20T00:53:41.713Z,96.04
2022-12-20T00:55:43.586Z,95.99
2022-12-20T00:59:46.131Z,95.93
2022-12-20T01:01:48.314Z,95.92
2022-12-20T01:03:49.525Z,95.9
2022-12-20T01:05:51.202Z,95.88
2022-12-20T01:09:53.834Z,95.88
2022-12-20T01:11:55.046Z,95.82
2022-12-20T01:13:56.372Z,95.8
2022-12-20T01:15:57.757Z,95.79
2022-12-20T01:17:59.730Z,95.82
2022-12-20T01:20:01.392Z,95.8
2022-12-20T01:22:02.624Z,95.82
2022-12-20T01:24:04.533Z,95.88
2022-12-20T01:26:05.765Z,95.98
2022-12-20T01:28:07.431Z,96.09
2022-12-20T01:30:08.605Z,96.3
2022-12-20T01:32:10.311Z,96.33
2022-12-20T01:34:11.587Z,96.42
2022-12-20T01:36:13.071Z,96.42
2022-12-20T01:38:14.337Z,96.42
2022-12-20T01:40:15.421Z,96.42
2022-12-20T01:42:17.026Z,96.39
2022-12-20T01:44:18.229Z,96.41
2022-12-20T01:46:19.981Z,96.47
2022-12-20T01:48:21.291Z,96.48
2022-12-20T01:52:23.683Z,96.57
2022-12-20T01:54:25.733Z,96.6
2022-12-20T01:56:26.956Z,96.65
2022-12-20T01:58:28.790Z,96.72
2022-12-20T02:00:30.552Z,96.67
2022-12-20T02:02:32.265Z,96.66
2022-12-20T02:04:33.864Z,96.68
2022-12-20T02:06:35.682Z,96.78
2022-12-20T02:08:36.789Z,96.86
2022-12-20T02:10:38.489Z,96.94
2022-12-20T02:12:39.867Z,96.96
2022-12-20T02:14:41.831Z,96.96
2022-12-20T02:16:43.777Z,96.91
2022-12-20T02:18:45.675Z,96.93
2022-12-20T02:20:46.845Z,97.08
2022-12-20T02:24:49.941Z,97.1
2022-12-20T02:26:51.438Z,97.12
2022-12-20T02:28:53.261Z,97.19
2022-12-20T02:30:55.030Z,97.19
2022-12-20T02:34:57.901Z,97.24
2022-12-20T02:36:59.735Z,97.24
2022-12-20T02:39:01.223Z,97.29
2022-12-20T02:41:02.696Z,97.34
2022-12-20T02:43:04.273Z,97.39
2022-12-20T02:45:05.826Z,97.41
2022-12-20T02:47:06.903Z,97.39
2022-12-20T02:49:08.470Z,97.44
2022-12-20T02:51:09.864Z,97.47
2022-12-20T02:53:11.137Z,97.53
2022-12-20T02:55:12.910Z,97.72
2022-12-20T02:57:14.879Z,97.67
2022-12-20T02:59:16.256Z,97.64
2022-12-20T03:01:18.040Z,97.65
2022-12-20T03:03:19.673Z,97.62
2022-12-20T03:07:23.298Z,97.61
2022-12-20T03:09:24.444Z,97.55
2022-12-20T03:11:25.976Z,97.52
2022-12-20T03:13:26.886Z,97.57
2022-12-20T03:17:30.200Z,97.83
2022-12-20T03:19:31.677Z,97.89
2022-12-20T03:21:33.573Z,97.97
2022-12-20T03:23:34.713Z,98.01
2022-12-20T03:25:35.945Z,98.05
2022-12-20T03:27:37.575Z,98.03
2022-12-20T03:29:39.028Z,98.08
2022-12-20T03:31:40.728Z,98.13
2022-12-20T03:33:42.438Z,98.13
2022-12-20T03:35:43.782Z,98.17
2022-12-20T03:37:45.101Z,98.08
2022-12-20T03:39:46.784Z,98.12
2022-12-20T03:41:47.955Z,98.14
2022-12-20T03:45:50.764Z,98.11
2022-12-20T03:47:52.647Z,98.08
2022-12-20T03:49:54.305Z,98.02
2022-12-20T03:51:55.725Z,97.97
2022-12-20T03:53:57.760Z,97.98
2022-12-20T03:55:59.613Z,97.97
2022-12-20T04:00:01.904Z,97.99
2022-12-20T04:02:03.789Z,98.03
2022-12-20T04:04:05.239Z,98.03
2022-12-20T04:06:06.437Z,98.03
2022-12-20T04:08:08.241Z,98.03
2022-12-20T04:10:09.860Z,98.05
2022-12-20T04:12:10.940Z,98.07
2022-12-20T04:14:12.907Z,98.09
2022-12-20T04:16:14.874Z,98.12
2022-12-20T04:18:15.901Z,98.1
2022-12-20T04:20:17.824Z,98.11
2022-12-20T04:22:19.488Z,98.11
2022-12-20T04:24:21.146Z,98.1
2022-12-20T04:26:22.825Z,98.08
2022-12-20T04:28:24.359Z,98.1
2022-12-20T04:30:25.699Z,98.13
2022-12-20T04:32:27.841Z,98.13
2022-12-20T04:34:29.062Z,98.11
2022-12-20T04:36:30.903Z,98.11
2022-12-20T04:38:32.012Z,98.17
2022-12-20T04:42:35.536Z,98.16
2022-12-20T04:44:36.643Z,98.15
2022-12-20T04:48:56.882Z,98.13
2022-12-20T04:50:40.661Z,98.15
2022-12-20T04:52:47.272Z,98.17
2022-12-20T04:54:43.115Z,98.2
2022-12-20T04:56:44.452Z,98.21
2022-12-20T04:58:45.694Z,98.21
2022-12-20T05:00:47.471Z,98.24
2022-12-20T05:02:49.151Z,98.22
2022-12-20T05:04:50.650Z,98.24
2022-12-20T05:06:52.798Z,98.2
2022-12-20T05:08:54.506Z,98.2
2022-12-20T05:10:56.442Z,98.18
2022-12-20T05:12:58.336Z,98.14
2022-12-20T05:15:00.486Z,98.26
2022-12-20T05:17:02.334Z,98.37
2022-12-20T05:19:03.810Z,98.39
2022-12-20T05:21:05.362Z,98.44
2022-12-20T05:25:08.346Z,98.47
2022-12-20T05:27:09.532Z,98.4
2022-12-20T05:29:11.286Z,98.43
2022-12-20T05:31:12.711Z,98.48
2022-12-20T05:31:56.626Z,98.45
2022-12-20T05:33:58.556Z,98.42
2022-12-20T05:35:59.886Z,98.38
2022-12-20T05:38:01.246Z,98.37
2022-12-20T05:40:03.019Z,98.35
2022-12-20T05:42:04.411Z,98.34
2022-12-20T05:44:05.895Z,98.35
2022-12-20T05:46:07.062Z,98.38
2022-12-20T05:48:08.081Z,98.39
2022-12-20T05:50:15.151Z,98.37
2022-12-20T05:52:11.435Z,98.35
2022-12-20T05:54:12.735Z,98.32
2022-12-20T05:56:14.189Z,98.3
2022-12-20T05:58:16.053Z,98.29
2022-12-20T06:00:18.099Z,98.3
2022-12-20T06:02:20.030Z,98.29
2022-12-20T06:04:21.663Z,98.28
2022-12-20T06:06:22.613Z,98.27
2022-12-20T06:08:24.072Z,98.27
2022-12-20T06:10:25.271Z,98.28
2022-12-20T06:12:27.105Z,98.28
2022-12-20T06:14:28.996Z,98.29
2022-12-20T06:18:31.913Z,98.3
2022-12-20T06:20:34.090Z,98.32
2022-12-20T06:22:35.837Z,98.31
2022-12-20T06:24:38.651Z,98.32
2022-12-20T06:26:39.071Z,98.34
2022-12-20T06:28:40.197Z,98.33
2022-12-20T06:30:41.622Z,98.36
2022-12-20T06:32:42.987Z,98.34
2022-12-20T06:34:44.646Z,98.34
2022-12-20T06:36:46.004Z,98.32
2022-12-20T06:38:47.147Z,98.32
2022-12-20T06:40:48.908Z,98.31
2022-12-20T06:42:50.498Z,98.31
2022-12-20T06:44:52.023Z,98.33
2022-12-20T06:46:54.163Z,98.32
2022-12-20T06:48:56.087Z,98.3
2022-12-20T06:50:57.824Z,98.3
2022-12-20T06:52:59.544Z,98.3
2022-12-20T06:55:01.820Z,98.31
2022-12-20T06:57:03.610Z,98.29
2022-12-20T07:01:07.353Z,98.27
2022-12-20T07:03:09.115Z,98.27
2022-12-20T07:05:10.794Z,98.26
2022-12-20T07:07:12.084Z,98.26
2022-12-20T07:09:14.259Z,98.28
2022-12-20T07:11:15.831Z,98.23
2022-12-20T07:13:17.565Z,98.24
2022-12-20T07:15:19.671Z,98.25
2022-12-20T07:17:21.403Z,98.25
2022-12-20T07:19:23.277Z,98.26
2022-12-20T07:21:24.841Z,98.24
2022-12-20T07:23:26.631Z,98.25
2022-12-20T07:25:28.328Z,98.24
2022-12-20T07:27:29.861Z,98.25
2022-12-20T07:29:31.430Z,98.25
2022-12-20T07:33:34.060Z,98.3
2022-12-20T07:35:35.662Z,98.28
2022-12-20T07:37:36.973Z,98.28
2022-12-20T07:39:38.401Z,98.27
2022-12-20T07:43:41.511Z,98.32
2022-12-20T07:45:43.578Z,98.3
2022-12-20T07:47:44.139Z,98.31
2022-12-20T07:49:45.588Z,98.32
2022-12-20T07:51:47.556Z,98.33
2022-12-20T07:53:49.269Z,98.35
2022-12-20T07:55:50.486Z,98.35
2022-12-20T07:57:52.473Z,98.33
2022-12-20T07:59:53.723Z,98.34
2022-12-20T08:01:59.393Z,98.33
2022-12-20T08:03:56.855Z,98.31
2022-12-20T08:05:58.168Z,98.3
2022-12-20T08:08:00.213Z,98.31
2022-12-20T08:10:01.919Z,98.28
2022-12-20T08:12:03.737Z,98.26
2022-12-20T08:16:06.249Z,98.3
2022-12-20T08:18:07.787Z,98.28
2022-12-20T08:20:09.398Z,98.26
2022-12-20T08:22:10.869Z,98.26
2022-12-20T08:26:14.033Z,98.17
2022-12-20T08:28:15.889Z,98.12
2022-12-20T08:30:17.597Z,98.17
2022-12-20T08:32:18.606Z,98.18
2022-12-20T08:34:20.527Z,98.17
2022-12-20T08:36:22.133Z,98.14
2022-12-20T08:38:23.623Z,98.12
2022-12-20T08:40:25.741Z,98.08
2022-12-20T08:42:26.691Z,98.05
2022-12-20T08:44:28.474Z,98.08
2022-12-20T08:46:29.663Z,98.08
2022-12-20T08:48:30.610Z,98.06
2022-12-20T08:50:32.358Z,98.03
2022-12-20T08:52:34.138Z,98.06
2022-12-20T08:54:36.069Z,98.05
2022-12-20T08:56:37.554Z,98.05
2022-12-20T08:58:39.467Z,98.08
2022-12-20T09:00:40.700Z,98.1
2022-12-20T09:02:42.541Z,98.09
2022-12-20T09:04:43.886Z,98.12
2022-12-20T09:08:47.065Z,98.11
2022-12-20T09:10:48.467Z,98.15
2022-12-20T09:12:50.481Z,98.17
2022-12-20T09:14:51.965Z,98.11
2022-12-20T09:16:53.885Z,98.11
2022-12-20T09:18:59.289Z,98.05
2022-12-20T09:20:56.930Z,98.06
2022-12-20T09:22:58.852Z,98.1
2022-12-20T09:25:00.044Z,97.97
2022-12-20T09:27:01.169Z,98.03
2022-12-20T09:29:02.311Z,97.94
2022-12-20T09:31:03.680Z,97.89
2022-12-20T09:33:07.603Z,97.86
2022-12-20T09:35:06.389Z,97.9
2022-12-20T09:37:07.917Z,97.88
2022-12-20T09:39:09.964Z,97.82
2022-12-20T09:41:11.184Z,97.82
2022-12-20T09:43:12.560Z,97.77
2022-12-20T09:45:13.933Z,97.61
2022-12-20T09:47:15.499Z,97.55
2022-12-20T09:51:18.784Z,97.48
2022-12-20T09:53:20.796Z,97.38
2022-12-20T09:55:22.821Z,97.42
2022-12-20T09:57:24.925Z,97.43
2022-12-20T09:59:26.665Z,97.38
2022-12-20T10:01:32.708Z,97.16
2022-12-20T10:03:30.121Z,97.13
2022-12-20T10:05:35.656Z,97.32
2022-12-20T10:07:33.557Z,97.4
2022-12-20T10:09:34.735Z,97.32
2022-12-20T10:11:40.879Z,97.21
2022-12-20T10:13:37.435Z,97.21
2022-12-20T10:15:38.514Z,97.23
2022-12-20T10:17:39.822Z,97.16
2022-12-20T10:19:41.039Z,97.15
2022-12-20T10:21:42.321Z,96.97
2022-12-20T10:23:43.832Z,96.93
2022-12-20T10:25:44.946Z,96.75
2022-12-20T10:27:46.640Z,96.7
2022-12-20T10:29:48.163Z,96.77
2022-12-20T10:33:50.392Z,97.06
2022-12-20T10:35:51.487Z,96.99
2022-12-20T10:38:06.223Z,97.01
2022-12-20T10:39:54.876Z,96.96
2022-12-20T10:41:56.501Z,97.04
2022-12-20T10:43:57.564Z,97.06
2022-12-20T10:45:59.579Z,97.1
2022-12-20T10:48:00.922Z,97.01
2022-12-20T10:50:02.300Z,97.12
2022-12-20T10:52:03.600Z,97.18
2022-12-20T10:54:04.779Z,97.17
2022-12-20T10:56:06.520Z,97.14
2022-12-20T10:58:07.557Z,97.02
2022-12-20T11:00:08.590Z,97.06
2022-12-20T11:02:09.753Z,97.06
2022-12-20T11:06:12.468Z,96.77
2022-12-20T11:08:40.669Z,96.87
2022-12-20T11:10:15.187Z,96.77
2022-12-20T11:12:16.884Z,96.82
2022-12-20T11:16:20.185Z,96.89
2022-12-20T11:18:21.445Z,96.93
2022-12-20T11:20:23.204Z,96.97
2022-12-20T11:22:24.268Z,97.01
2022-12-20T11:24:26.020Z,97.01
2022-12-20T11:26:27.788Z,97.01
2022-12-20T11:28:29.494Z,96.94
2022-12-20T11:30:31.323Z,96.86
2022-12-20T11:32:32.772Z,96.88
2022-12-20T11:34:34.308Z,96.89
2022-12-20T11:36:35.457Z,96.83
2022-12-20T11:38:37.285Z,96.82
2022-12-20T11:40:39.191Z,96.8
2022-12-20T11:42:41.045Z,96.79
2022-12-20T11:44:48.661Z,96.66
2022-12-20T11:48:45.476Z,96.81
2022-12-20T11:50:47.155Z,96.65
2022-12-20T11:52:48.454Z,96.74
2022-12-20T11:54:49.547Z,96.76
2022-12-20T11:56:51.416Z,96.92
2022-12-20T11:58:52.639Z,96.92
2022-12-20T12:00:53.654Z,96.83
2022-12-20T12:02:58.285Z,96.79
2022-12-20T12:04:56.494Z,96.82
2022-12-20T12:06:57.921Z,96.67
2022-12-20T12:08:59.530Z,96.75
2022-12-20T12:11:01.200Z,96.81
2022-12-20T12:13:02.604Z,96.71
2022-12-20T12:15:04.165Z,96.6
2022-12-20T12:17:05.964Z,96.59
2022-12-20T12:17:49.763Z,96.58
2022-12-20T12:19:51.352Z,96.62
2022-12-20T12:21:52.844Z,96.59
2022-12-20T12:26:04.848Z,96.38
2022-12-20T12:27:57.728Z,96.34
2022-12-20T12:29:59.238Z,96.33
2022-12-20T12:32:00.380Z,96.35
2022-12-20T12:34:01.753Z,96.31
2022-12-20T12:36:03.380Z,96.25
2022-12-20T12:38:04.573Z,96.21
2022-12-20T12:42:07.905Z,96.12
2022-12-20T12:44:09.527Z,96.16
2022-12-20T12:46:14.344Z,96.19
2022-12-20T12:48:12.998Z,96.22
2022-12-20T12:50:14.304Z,96.24
2022-12-20T12:52:15.921Z,96.22
2022-12-20T12:54:17.689Z,96.3
2022-12-20T12:56:41.906Z,96.38
2022-12-20T12:58:20.185Z,96.41
2022-12-20T13:00:21.669Z,96.31
2022-12-20T13:02:23.423Z,96.4
2022-12-20T13:04:24.767Z,96.47
2022-12-20T13:06:25.867Z,96.42
2022-12-20T13:08:27.442Z,96.47
2022-12-20T13:10:28.614Z,96.44
2022-12-20T13:14:31.591Z,96.33
2022-12-20T13:17:09.800Z,96.34
2022-12-20T13:18:34.160Z,96.26
2022-12-20T13:20:35.807Z,96.26
2022-12-20T13:24:38.754Z,96.17
2022-12-20T13:26:40.113Z,96.2
2022-12-20T13:28:41.403Z,96.22
2022-12-20T13:30:42.542Z,96.22
2022-12-20T13:32:43.712Z,96.24
2022-12-20T13:34:44.723Z,96.31
2022-12-20T13:36:46.529Z,96.33
2022-12-20T13:38:47.793Z,96.53
2022-12-20T13:40:49.751Z,96.79
2022-12-20T13:42:51.310Z,96.58
2022-12-20T13:44:52.879Z,96.6
2022-12-20T13:46:54.600Z,96.92
2022-12-20T13:48:56.345Z,96.99
2022-12-20T13:50:58.022Z,96.95
2022-12-20T13:52:59.047Z,96.92
2022-12-20T13:55:00.051Z,96.82
2022-12-20T13:57:02.037Z,96.82
2022-12-20T13:59:03.331Z,96.84
2022-12-20T14:01:05.035Z,96.82
2022-12-20T14:03:06.310Z,96.89
2022-12-20T14:07:09.140Z,96.89
2022-12-20T14:09:10.428Z,96.94
2022-12-20T14:11:11.761Z,96.68
2022-12-20T14:13:13.036Z,96.65
2022-12-20T14:15:14.945Z,96.64
2022-12-20T14:17:16.698Z,96.56
2022-12-20T14:19:17.919Z,96.52
2022-12-20T14:21:19.720Z,96.43
2022-12-20T14:23:21.559Z,96.26
2022-12-20T14:25:23.472Z,96.06
2022-12-20T14:27:24.803Z,95.89
2022-12-20T14:29:26.077Z,95.94
2022-12-20T14:31:28.041Z,96.01
2022-12-20T14:33:29.242Z,96.1
2022-12-20T14:35:31.147Z,96.16
2022-12-20T14:37:32.909Z,96.15
2022-12-20T14:39:34.816Z,96.26
2022-12-20T14:41:36.739Z,96.32
2022-12-20T14:43:38.423Z,96.41
2022-12-20T14:45:40.151Z,96.51
2022-12-20T14:49:42.705Z,96.69
2022-12-20T14:51:44.355Z,96.74
2022-12-20T14:53:45.529Z,96.88
2022-12-20T14:55:47.455Z,97.08
2022-12-20T14:57:49.431Z,97.14
2022-12-20T14:59:51.449Z,97.13
2022-12-20T15:01:52.583Z,97.11
2022-12-20T15:03:53.592Z,97.11
2022-12-20T15:05:55.065Z,97.11
2022-12-20T15:07:56.271Z,97.11
2022-12-20T15:09:57.812Z,97.12
2022-12-20T15:11:59.116Z,97.12
2022-12-20T15:14:00.879Z,97.15
2022-12-20T15:16:02.270Z,97.18
2022-12-20T15:18:03.679Z,97.22
2022-12-20T15:22:05.983Z,97.41
2022-12-20T15:24:07.839Z,97.43
2022-12-20T15:26:09.372Z,97.48
2022-12-20T15:28:11.247Z,97.59
2022-12-20T15:30:12.753Z,97.6
2022-12-20T15:32:14.357Z,97.59
2022-12-20T15:34:15.702Z,97.57
2022-12-20T15:36:17.281Z,97.57
2022-12-20T15:38:25.372Z,97.66
2022-12-20T15:40:21.280Z,97.79
2022-12-20T15:42:23.322Z,97.78
2022-12-20T15:44:25.021Z,97.87
2022-12-20T15:48:28.114Z,98
2022-12-20T15:50:29.673Z,98.02
2022-12-20T15:52:31.402Z,98.01
2022-12-20T15:54:32.881Z,97.93
2022-12-20T15:56:34.181Z,97.94
2022-12-20T15:58:35.387Z,97.94
2022-12-20T16:00:37.194Z,97.94
2022-12-20T16:04:40.383Z,97.94
2022-12-20T16:06:41.750Z,97.93
2022-12-20T16:08:42.977Z,97.94
2022-12-20T16:10:44.456Z,97.94
2022-12-20T16:14:47.111Z,97.98
2022-12-20T16:16:49.161Z,98
2022-12-20T16:18:50.750Z,98.01
2022-12-20T16:20:51.961Z,98
2022-12-20T16:22:53.049Z,98.01
2022-12-20T16:24:54.403Z,98.03
2022-12-20T16:26:56.424Z,98.02
2022-12-20T16:28:58.082Z,98.02
2022-12-20T16:30:59.679Z,98.03
2022-12-20T16:33:01.114Z,98.06
2022-12-20T16:35:02.338Z,98.05
2022-12-20T16:37:03.780Z,98.12
2022-12-20T16:39:05.058Z,98.12
2022-12-20T16:41:06.236Z,98.14
2022-12-20T16:43:07.671Z,98.11
2022-12-20T16:45:08.970Z,98.1
2022-12-20T16:47:10.308Z,98.11
2022-12-20T16:49:17.935Z,98.08
2022-12-20T16:51:13.084Z,98.07
2022-12-20T16:53:14.203Z,98.06
2022-12-20T16:55:16.090Z,98.13
2022-12-20T16:57:18.011Z,98.15
2022-12-20T16:59:21.793Z,98.15
2022-12-20T17:03:23.700Z,98.18
2022-12-20T17:05:25.477Z,98.17
2022-12-20T17:07:26.995Z,98.15
2022-12-20T17:09:28.598Z,98.23
2022-12-20T17:11:29.931Z,98.25
2022-12-20T17:13:31.248Z,98.24
2022-12-20T17:15:32.614Z,98.25
2022-12-20T17:17:33.770Z,98.24
2022-12-20T17:19:35.327Z,98.24
2022-12-20T17:23:45.403Z,98.24
2022-12-20T17:25:39.321Z,98.24
2022-12-20T17:27:41.362Z,98.23
2022-12-20T17:29:42.988Z,98.22
2022-12-20T17:31:44.818Z,98.21
2022-12-20T17:33:46.787Z,98.19
2022-12-20T17:35:48.551Z,98.17
2022-12-20T17:37:49.835Z,98.17
2022-12-20T17:39:51.636Z,98.2
2022-12-20T17:41:52.609Z,98.1
2022-12-20T17:45:56.529Z,98.08
2022-12-20T17:47:58.572Z,98.11
2022-12-20T17:50:00.682Z,98.17
2022-12-20T17:52:02.089Z,98.2
2022-12-20T17:56:05.190Z,98.28
2022-12-20T17:58:06.991Z,98.26
2022-12-20T18:00:08.448Z,98.34
2022-12-20T18:02:10.320Z,98.23
2022-12-20T18:04:11.400Z,98.25
2022-12-20T18:06:12.384Z,98.24
2022-12-20T18:08:13.898Z,98.28
2022-12-20T18:10:15.753Z,98.27
2022-12-20T18:12:17.367Z,98.27
2022-12-20T18:14:18.801Z,98.28
2022-12-20T18:16:20.411Z,98.35
2022-12-20T18:18:22.367Z,98.33
2022-12-20T18:20:23.682Z,98.32
2022-12-20T18:22:25.283Z,98.3
2022-12-20T18:24:26.898Z,98.29
2022-12-20T18:28:30.854Z,98.29
2022-12-20T18:30:32.558Z,98.28
2022-12-20T18:32:33.987Z,98.32
2022-12-20T18:34:35.988Z,98.34
2022-12-20T18:38:38.916Z,98.35
2022-12-20T18:40:40.981Z,98.32
2022-12-20T18:42:43.086Z,98.31
2022-12-20T18:44:45.129Z,98.31
2022-12-20T18:46:46.504Z,98.28
2022-12-20T18:48:48.152Z,98.3
2022-12-20T18:50:49.440Z,98.29
2022-12-20T18:52:51.074Z,98.28
2022-12-20T18:54:52.506Z,98.28
2022-12-20T18:56:54.058Z,98.3
2022-12-20T18:58:55.655Z,98.29
2022-12-20T19:00:57.326Z,98.29
2022-12-20T19:02:58.644Z,98.28
2022-12-20T19:03:42.459Z,98.28
2022-12-20T19:05:44.071Z,98.3
2022-12-20T19:07:45.444Z,98.29
2022-12-20T19:09:47.035Z,98.28
2022-12-20T19:11:53.214Z,98.3
2022-12-20T19:15:51.195Z,98.32
2022-12-20T19:17:52.629Z,98.34
2022-12-20T19:19:53.785Z,98.31
2022-12-20T19:21:55.687Z,98.32
2022-12-20T19:23:57.799Z,98.3
2022-12-20T19:26:04.692Z,98.29
2022-12-20T19:28:00.810Z,98.32
2022-12-20T19:30:02.980Z,98.35
2022-12-20T19:32:04.480Z,98.35
2022-12-20T19:34:06.419Z,98.34
2022-12-20T19:36:08.551Z,98.36
2022-12-20T19:38:09.664Z,98.34
2022-12-20T19:40:11.028Z,98.33
2022-12-20T19:42:23.888Z,98.31
2022-12-20T19:44:14.214Z,98.31
2022-12-20T19:48:17.263Z,98.33
2022-12-20T19:50:19.028Z,98.32
2022-12-20T19:52:24.881Z,98.31
2022-12-20T19:54:21.918Z,98.33
2022-12-20T19:58:25.153Z,98.35
2022-12-20T20:00:26.272Z,98.35
2022-12-20T20:02:28.226Z,98.34
2022-12-20T20:04:29.530Z,98.33
2022-12-20T20:06:31.114Z,98.33
2022-12-20T20:08:32.651Z,98.35
2022-12-20T20:10:33.983Z,98.34
2022-12-20T20:12:35.736Z,98.33
2022-12-20T20:14:36.856Z,98.33
2022-12-20T20:16:38.056Z,98.32
2022-12-20T20:18:39.466Z,98.32
2022-12-20T20:20:40.793Z,98.3
2022-12-20T20:22:42.605Z,98.32
2022-12-20T20:24:44.549Z,98.31
2022-12-20T20:26:46.294Z,98.33
2022-12-20T20:28:48.328Z,98.32
2022-12-20T20:30:49.864Z,98.33
2022-12-20T20:32:51.738Z,98.32
2022-12-20T20:34:53.268Z,98.32
2022-12-20T20:36:54.740Z,98.31
2022-12-20T20:40:57.107Z,98.33
2022-12-20T20:42:59.186Z,98.33
2022-12-20T20:45:00.375Z,98.37
2022-12-20T20:47:01.645Z,98.38
2022-12-20T20:49:03.525Z,98.36
2022-12-20T20:51:05.456Z,98.37
2022-12-20T20:53:06.890Z,98.36
2022-12-20T20:55:08.693Z,98.34
2022-12-20T20:57:10.286Z,98.35
2022-12-20T20:59:17.164Z,98.34
2022-12-20T21:01:13.493Z,98.37
2022-12-20T21:03:14.613Z,98.34
2022-12-20T21:06:07.446Z,98.34
2022-12-20T21:07:17.495Z,98.34
2022-12-20T21:09:19.322Z,98.32
2022-12-20T21:11:21.341Z,98.32
2022-12-20T21:13:22.479Z,98.3
2022-12-20T21:15:24.260Z,98.33
2022-12-20T21:17:25.078Z,98.33
2022-12-20T21:19:26.854Z,98.28
2022-12-20T21:23:29.711Z,98.25
2022-12-20T21:25:31.169Z,98.24
2022-12-20T21:27:32.417Z,98.26
2022-12-20T21:29:33.808Z,98.27
2022-12-20T21:31:34.962Z,98.26
2022-12-20T21:33:36.849Z,98.26
2022-12-20T21:35:37.962Z,98.26
2022-12-20T21:37:39.709Z,98.25
2022-12-20T21:39:41.148Z,98.23
2022-12-20T21:41:42.274Z,98.23
2022-12-20T21:43:43.319Z,98.22
2022-12-20T21:45:45.055Z,98.22
2022-12-20T21:47:46.468Z,98.22
2022-12-20T21:49:48.017Z,98.2
2022-12-20T21:51:49.499Z,98.19
2022-12-20T21:55:52.331Z,98.21
2022-12-20T21:57:53.766Z,98.25
2022-12-20T21:59:55.367Z,98.25
2022-12-20T22:01:57.016Z,98.28
2022-12-20T22:06:00.303Z,98.28
2022-12-20T22:08:02.121Z,98.25
2022-12-20T22:10:03.207Z,98.25
2022-12-20T22:12:04.412Z,98.25
2022-12-20T22:14:05.882Z,98.23
2022-12-20T22:16:07.907Z,98.25
2022-12-20T22:18:09.213Z,98.24
2022-12-20T22:20:10.903Z,98.22
2022-12-20T22:22:12.534Z,98.23
2022-12-20T22:24:14.155Z,98.22
2022-12-20T22:26:15.283Z,98.26
2022-12-20T22:28:16.800Z,98.26
2022-12-20T22:30:18.478Z,98.23
2022-12-20T22:32:19.769Z,98.24
2022-12-20T22:34:20.808Z,98.25
2022-12-20T22:36:22.567Z,98.27
2022-12-20T22:38:23.975Z,98.29
2022-12-20T22:40:25.220Z,98.31
2022-12-20T22:42:26.904Z,98.35
2022-12-20T22:44:28.886Z,98.38
2022-12-20T22:48:31.516Z,98.4
2022-12-20T22:50:33.473Z,98.4
2022-12-20T22:54:36.362Z,98.4
2022-12-20T22:56:37.985Z,98.39
2022-12-20T22:58:39.241Z,98.39
2022-12-20T23:00:40.987Z,98.38
2022-12-20T23:02:42.797Z,98.39
2022-12-20T23:04:44.207Z,98.4
2022-12-20T23:06:45.524Z,98.38
2022-12-20T23:08:47.344Z,98.39
2022-12-20T23:10:48.687Z,98.38
2022-12-20T23:12:50.542Z,98.37
2022-12-20T23:14:52.460Z,98.37
2022-12-20T23:16:53.748Z,98.35
2022-12-20T23:18:55.680Z,98.35
2022-12-20T23:20:57.164Z,98.36
2022-12-20T23:22:58.443Z,98.35
2022-12-20T23:25:00.336Z,98.4
2022-12-20T23:27:01.377Z,98.43
2022-12-20T23:29:02.692Z,98.44
2022-12-20T23:31:04.572Z,98.44
2022-12-20T23:33:06.482Z,98.44
2022-12-20T23:37:09.346Z,98.45
2022-12-20T23:39:10.947Z,98.49
2022-12-20T23:41:12.281Z,98.49
2022-12-20T23:43:14.169Z,98.51
2022-12-20T23:47:18.908Z,98.49
2022-12-20T23:49:18.364Z,98.47
2022-12-20T23:51:20.352Z,98.49
2022-12-20T23:53:22.259Z,98.48
2022-12-20T23:55:23.449Z,98.46
2022-12-20T23:57:25.495Z,98.45
2022-12-20T23:59:27.111Z,98.44
